KPTW/PTW METAR and TAF weather

Enter ICAO airport designator
Station Type Date Time Source
KPTW METAR 2019/02/16 17:54 UTC NOAA

KPTW 161754Z AUTO 35009KT 10SM CLR 04/M08 A2990 RMK AO2 SLP125 T00391078 10044 21006 58007


Station Type Date Time Source
KPTW Decoded METAR 2019/02/16 17:54 UTC NOAA

POTTSTOWN LIMERICK AIRPORT, PA, United States (KPTW) 40-14N 075-33W 89M
Feb 16, 2019 - 12:54 PM EST / 2019.02.16 1754 UTC
Wind: from the N (350 degrees) at 10 MPH (9 KT):0
Visibility: 10 mile(s):0
Sky conditions: clear
Temperature: 39.0 F (3.9 C)
Dew Point: 18.0 F (-7.8 C)
Relative Humidity: 42%
Pressure (altimeter): 29.9 in. Hg (1012 hPa)
Pressure tendency: 0.02 inches (0.7 hPa) lower than three hours ago
ob: KPTW 161754Z AUTO 35009KT 10SM CLR 04/M08 A2990 RMK AO2 SLP125 T00391078 10044 21006 58007
cycle: 18

Station Type Date Time Source
KPTW TAF UTC NOAA

Error!


Example: see airport list